sensor_id;sensor_type;location;lat;lon;timestamp;P1;durP1;ratioP1;P2;durP2;ratioP2
23768;SDS011;12064;50.890;5.424;2024-03-22T00:01:50;3.00;;;2.00;;
23768;SDS011;12064;50.890;5.424;2024-03-22T00:10:41;3.15;;;2.10;;
23768;SDS011;12064;50.890;5.424;2024-03-22T00:19:32;3.22;;;2.10;;
23768;SDS011;12064;50.890;5.424;2024-03-22T00:28:22;2.55;;;2.10;;
23768;SDS011;12064;50.890;5.424;2024-03-22T00:37:13;2.23;;;2.03;;
23768;SDS011;12064;50.890;5.424;2024-03-22T00:46:03;2.20;;;2.00;;
23768;SDS011;12064;50.890;5.424;2024-03-22T00:54:54;2.42;;;2.10;;
23768;SDS011;12064;50.890;5.424;2024-03-22T01:03:45;3.47;;;2.15;;
23768;SDS011;12064;50.890;5.424;2024-03-22T01:12:35;3.00;;;2.17;;
23768;SDS011;12064;50.890;5.424;2024-03-22T01:21:26;3.15;;;2.03;;
23768;SDS011;12064;50.890;5.424;2024-03-22T01:30:17;2.60;;;2.10;;
23768;SDS011;12064;50.890;5.424;2024-03-22T01:39:07;2.10;;;1.90;;
23768;SDS011;12064;50.890;5.424;2024-03-22T01:47:58;3.50;;;1.83;;
23768;SDS011;12064;50.890;5.424;2024-03-22T01:56:49;3.97;;;2.00;;
23768;SDS011;12064;50.890;5.424;2024-03-22T02:05:40;3.30;;;2.20;;
23768;SDS011;12064;50.890;5.424;2024-03-22T02:14:31;4.13;;;2.10;;
23768;SDS011;12064;50.890;5.424;2024-03-22T02:23:23;2.20;;;2.00;;
23768;SDS011;12064;50.890;5.424;2024-03-22T02:32:32;2.40;;;2.03;;
23768;SDS011;12064;50.890;5.424;2024-03-22T02:41:22;2.20;;;1.97;;
23768;SDS011;12064;50.890;5.424;2024-03-22T02:50:13;2.67;;;2.10;;
23768;SDS011;12064;50.890;5.424;2024-03-22T02:59:04;3.83;;;1.87;;
23768;SDS011;12064;50.890;5.424;2024-03-22T03:07:54;3.47;;;2.07;;
23768;SDS011;12064;50.890;5.424;2024-03-22T03:16:45;4.63;;;2.10;;
23768;SDS011;12064;50.890;5.424;2024-03-22T03:25:35;3.43;;;1.97;;
23768;SDS011;12064;50.890;5.424;2024-03-22T03:34:26;3.73;;;2.10;;
23768;SDS011;12064;50.890;5.424;2024-03-22T03:43:16;3.57;;;1.87;;
23768;SDS011;12064;50.890;5.424;2024-03-22T03:52:07;3.63;;;2.07;;
23768;SDS011;12064;50.890;5.424;2024-03-22T04:00:58;2.70;;;1.95;;
23768;SDS011;12064;50.890;5.424;2024-03-22T04:09:48;4.23;;;2.10;;
23768;SDS011;12064;50.890;5.424;2024-03-22T04:18:39;2.93;;;2.20;;
23768;SDS011;12064;50.890;5.424;2024-03-22T04:27:30;3.13;;;2.10;;
23768;SDS011;12064;50.890;5.424;2024-03-22T04:36:20;3.30;;;2.00;;
23768;SDS011;12064;50.890;5.424;2024-03-22T04:45:11;2.65;;;2.20;;
23768;SDS011;12064;50.890;5.424;2024-03-22T04:54:01;2.37;;;1.93;;
23768;SDS011;12064;50.890;5.424;2024-03-22T05:02:52;2.40;;;1.97;;
23768;SDS011;12064;50.890;5.424;2024-03-22T05:11:43;2.60;;;2.03;;
23768;SDS011;12064;50.890;5.424;2024-03-22T05:20:33;3.03;;;1.93;;
23768;SDS011;12064;50.890;5.424;2024-03-22T05:29:24;2.73;;;1.90;;
23768;SDS011;12064;50.890;5.424;2024-03-22T05:38:15;3.58;;;2.00;;
23768;SDS011;12064;50.890;5.424;2024-03-22T05:47:05;2.43;;;1.97;;
23768;SDS011;12064;50.890;5.424;2024-03-22T05:55:56;2.33;;;1.90;;
23768;SDS011;12064;50.890;5.424;2024-03-22T06:04:46;4.30;;;2.20;;
23768;SDS011;12064;50.890;5.424;2024-03-22T06:13:37;5.30;;;2.87;;
23768;SDS011;12064;50.890;5.424;2024-03-22T06:22:28;4.25;;;3.40;;
23768;SDS011;12064;50.890;5.424;2024-03-22T06:31:19;5.73;;;4.70;;
23768;SDS011;12064;50.890;5.424;2024-03-22T06:40:09;7.40;;;6.60;;
23768;SDS011;12064;50.890;5.424;2024-03-22T06:49:00;10.25;;;7.80;;
23768;SDS011;12064;50.890;5.424;2024-03-22T06:57:51;6.47;;;4.63;;
23768;SDS011;12064;50.890;5.424;2024-03-22T07:06:42;5.22;;;4.28;;
23768;SDS011;12064;50.890;5.424;2024-03-22T07:15:33;5.23;;;3.93;;
23768;SDS011;12064;50.890;5.424;2024-03-22T07:24:23;4.63;;;3.55;;
23768;SDS011;12064;50.890;5.424;2024-03-22T07:33:14;4.57;;;3.10;;
23768;SDS011;12064;50.890;5.424;2024-03-22T07:42:07;4.25;;;3.10;;
23768;SDS011;12064;50.890;5.424;2024-03-22T07:50:58;3.70;;;3.00;;
23768;SDS011;12064;50.890;5.424;2024-03-22T07:59:49;4.47;;;2.70;;
23768;SDS011;12064;50.890;5.424;2024-03-22T08:08:40;5.40;;;2.97;;
23768;SDS011;12064;50.890;5.424;2024-03-22T08:17:30;4.27;;;2.90;;
23768;SDS011;12064;50.890;5.424;2024-03-22T08:26:22;3.40;;;2.63;;
23768;SDS011;12064;50.890;5.424;2024-03-22T08:35:13;3.80;;;2.60;;
23768;SDS011;12064;50.890;5.424;2024-03-22T08:44:04;3.20;;;2.72;;
23768;SDS011;12064;50.890;5.424;2024-03-22T08:52:54;3.15;;;2.25;;
23768;SDS011;12064;50.890;5.424;2024-03-22T09:01:45;2.63;;;2.40;;
23768;SDS011;12064;50.890;5.424;2024-03-22T09:10:36;4.47;;;2.50;;
23768;SDS011;12064;50.890;5.424;2024-03-22T09:19:26;3.10;;;1.93;;
23768;SDS011;12064;50.890;5.424;2024-03-22T09:28:17;2.40;;;2.20;;
23768;SDS011;12064;50.890;5.424;2024-03-22T09:37:08;2.83;;;2.10;;
23768;SDS011;12064;50.890;5.424;2024-03-22T09:45:58;3.25;;;2.50;;
23768;SDS011;12064;50.890;5.424;2024-03-22T09:54:49;2.67;;;2.28;;
23768;SDS011;12064;50.890;5.424;2024-03-22T10:03:42;3.53;;;2.30;;
23768;SDS011;12064;50.890;5.424;2024-03-22T10:12:34;3.67;;;2.58;;
23768;SDS011;12064;50.890;5.424;2024-03-22T10:21:24;3.53;;;2.50;;
23768;SDS011;12064;50.890;5.424;2024-03-22T10:30:15;2.73;;;2.47;;
23768;SDS011;12064;50.890;5.424;2024-03-22T10:39:07;2.80;;;2.33;;
23768;SDS011;12064;50.890;5.424;2024-03-22T10:48:01;2.70;;;2.28;;
23768;SDS011;12064;50.890;5.424;2024-03-22T10:56:58;2.87;;;2.30;;
23768;SDS011;12064;50.890;5.424;2024-03-22T11:05:53;3.38;;;2.30;;
23768;SDS011;12064;50.890;5.424;2024-03-22T11:14:44;2.30;;;2.10;;
23768;SDS011;12064;50.890;5.424;2024-03-22T11:23:35;3.57;;;2.00;;
23768;SDS011;12064;50.890;5.424;2024-03-22T11:32:26;2.45;;;2.22;;
23768;SDS011;12064;50.890;5.424;2024-03-22T11:41:24;3.65;;;2.40;;
23768;SDS011;12064;50.890;5.424;2024-03-22T11:50:17;2.33;;;1.98;;
23768;SDS011;12064;50.890;5.424;2024-03-22T11:59:08;2.30;;;2.10;;
23768;SDS011;12064;50.890;5.424;2024-03-22T12:07:59;3.23;;;1.90;;
23768;SDS011;12064;50.890;5.424;2024-03-22T12:16:49;1.90;;;1.80;;
23768;SDS011;12064;50.890;5.424;2024-03-22T12:25:40;4.30;;;1.90;;
23768;SDS011;12064;50.890;5.424;2024-03-22T12:34:30;2.43;;;1.90;;
23768;SDS011;12064;50.890;5.424;2024-03-22T12:43:22;2.00;;;1.65;;
23768;SDS011;12064;50.890;5.424;2024-03-22T12:52:13;2.00;;;1.80;;
23768;SDS011;12064;50.890;5.424;2024-03-22T13:01:04;1.80;;;1.70;;
23768;SDS011;12064;50.890;5.424;2024-03-22T13:09:58;2.10;;;1.70;;
23768;SDS011;12064;50.890;5.424;2024-03-22T13:18:52;2.03;;;1.83;;
23768;SDS011;12064;50.890;5.424;2024-03-22T13:27:42;1.80;;;1.70;;
23768;SDS011;12064;50.890;5.424;2024-03-22T13:36:33;1.87;;;1.60;;
23768;SDS011;12064;50.890;5.424;2024-03-22T13:45:24;1.50;;;1.40;;
23768;SDS011;12064;50.890;5.424;2024-03-22T13:54:14;2.40;;;1.70;;
23768;SDS011;12064;50.890;5.424;2024-03-22T14:03:05;2.05;;;1.85;;
23768;SDS011;12064;50.890;5.424;2024-03-22T14:11:56;2.50;;;1.70;;
23768;SDS011;12064;50.890;5.424;2024-03-22T14:20:46;2.08;;;1.88;;
23768;SDS011;12064;50.890;5.424;2024-03-22T14:29:37;1.97;;;1.80;;
23768;SDS011;12064;50.890;5.424;2024-03-22T14:38:28;1.87;;;1.77;;
23768;SDS011;12064;50.890;5.424;2024-03-22T14:47:18;2.40;;;1.70;;
23768;SDS011;12064;50.890;5.424;2024-03-22T14:56:09;4.27;;;1.70;;
23768;SDS011;12064;50.890;5.424;2024-03-22T15:05:02;2.45;;;1.83;;
23768;SDS011;12064;50.890;5.424;2024-03-22T15:13:54;1.73;;;1.63;;
23768;SDS011;12064;50.890;5.424;2024-03-22T15:22:44;1.83;;;1.63;;
23768;SDS011;12064;50.890;5.424;2024-03-22T15:31:35;1.90;;;1.70;;
23768;SDS011;12064;50.890;5.424;2024-03-22T15:40:26;2.33;;;2.07;;
23768;SDS011;12064;50.890;5.424;2024-03-22T15:49:16;3.30;;;1.80;;
23768;SDS011;12064;50.890;5.424;2024-03-22T15:58:07;2.20;;;2.00;;
23768;SDS011;12064;50.890;5.424;2024-03-22T16:06:58;2.97;;;1.70;;
23768;SDS011;12064;50.890;5.424;2024-03-22T16:15:49;2.70;;;1.92;;
23768;SDS011;12064;50.890;5.424;2024-03-22T16:24:40;3.23;;;1.80;;
23768;SDS011;12064;50.890;5.424;2024-03-22T16:33:31;3.80;;;2.00;;
23768;SDS011;12064;50.890;5.424;2024-03-22T16:42:22;2.63;;;1.73;;
23768;SDS011;12064;50.890;5.424;2024-03-22T16:51:13;2.00;;;1.90;;
23768;SDS011;12064;50.890;5.424;2024-03-22T17:00:04;2.15;;;1.90;;
23768;SDS011;12064;50.890;5.424;2024-03-22T17:08:58;3.05;;;1.95;;
23768;SDS011;12064;50.890;5.424;2024-03-22T17:17:49;2.80;;;1.80;;
23768;SDS011;12064;50.890;5.424;2024-03-22T17:26:40;4.03;;;1.97;;
23768;SDS011;12064;50.890;5.424;2024-03-22T17:35:30;4.60;;;2.10;;
23768;SDS011;12064;50.890;5.424;2024-03-22T17:44:21;2.38;;;2.00;;
23768;SDS011;12064;50.890;5.424;2024-03-22T17:53:12;2.40;;;1.90;;
23768;SDS011;12064;50.890;5.424;2024-03-22T18:02:02;2.90;;;2.10;;
23768;SDS011;12064;50.890;5.424;2024-03-22T18:10:53;2.67;;;1.83;;
23768;SDS011;12064;50.890;5.424;2024-03-22T18:19:44;2.17;;;1.83;;
23768;SDS011;12064;50.890;5.424;2024-03-22T18:28:35;2.35;;;1.70;;
23768;SDS011;12064;50.890;5.424;2024-03-22T18:37:25;3.10;;;1.90;;
23768;SDS011;12064;50.890;5.424;2024-03-22T18:46:16;1.90;;;1.58;;
23768;SDS011;12064;50.890;5.424;2024-03-22T18:55:07;3.13;;;1.80;;
23768;SDS011;12064;50.890;5.424;2024-03-22T19:03:58;2.28;;;1.95;;
23768;SDS011;12064;50.890;5.424;2024-03-22T19:12:49;2.35;;;1.83;;
23768;SDS011;12064;50.890;5.424;2024-03-22T19:21:44;3.10;;;1.80;;
23768;SDS011;12064;50.890;5.424;2024-03-22T19:30:38;1.92;;;1.73;;
23768;SDS011;12064;50.890;5.424;2024-03-22T19:39:30;1.73;;;1.50;;
23768;SDS011;12064;50.890;5.424;2024-03-22T19:48:21;1.98;;;1.77;;
23768;SDS011;12064;50.890;5.424;2024-03-22T19:57:11;2.20;;;1.77;;
23768;SDS011;12064;50.890;5.424;2024-03-22T20:06:03;2.40;;;1.70;;
23768;SDS011;12064;50.890;5.424;2024-03-22T20:14:54;3.53;;;1.52;;
23768;SDS011;12064;50.890;5.424;2024-03-22T20:23:44;3.03;;;1.90;;
23768;SDS011;12064;50.890;5.424;2024-03-22T20:32:35;1.93;;;1.70;;
